createdAt,value
2022-12-03T00:00:54.483Z,3.14
2022-12-03T00:03:30.612Z,3.25
2022-12-03T00:06:04.348Z,3.32
2022-12-03T00:08:38.169Z,3.24
2022-12-03T00:11:13.150Z,3.21
2022-12-03T00:13:47.010Z,3.16
2022-12-03T00:16:20.613Z,3.13
2022-12-03T00:18:54.362Z,3.16
2022-12-03T00:21:27.982Z,3.20
2022-12-03T00:24:01.806Z,3.06
2022-12-03T00:26:36.766Z,3.06
2022-12-03T00:29:11.289Z,3.12
2022-12-03T00:31:45.516Z,3.11
2022-12-03T00:34:19.320Z,3.01
2022-12-03T00:36:52.830Z,2.93
2022-12-03T00:39:26.600Z,2.90
2022-12-03T00:42:01.432Z,2.83
2022-12-03T00:44:35.221Z,2.94
2022-12-03T00:47:09.645Z,2.88
2022-12-03T00:49:43.719Z,2.86
2022-12-03T00:52:17.243Z,2.88
2022-12-03T00:54:51.390Z,2.88
2022-12-03T00:57:26.673Z,2.81
2022-12-03T01:00:00.465Z,2.81
2022-12-03T01:02:33.952Z,2.69
2022-12-03T01:05:08.354Z,2.75
2022-12-03T01:07:42.203Z,2.74
2022-12-03T01:10:16.245Z,2.76
2022-12-03T01:12:51.200Z,2.80
2022-12-03T01:15:25.009Z,2.74
2022-12-03T01:17:58.616Z,2.69
2022-12-03T01:20:32.367Z,2.62
2022-12-03T01:23:06.008Z,2.64
2022-12-03T01:25:39.783Z,2.62
2022-12-03T01:28:15.782Z,2.63
2022-12-03T01:31:06.341Z,2.62
2022-12-03T01:33:39.964Z,2.56
2022-12-03T01:36:13.751Z,2.53
2022-12-03T01:38:48.660Z,2.45
2022-12-03T01:41:24.615Z,2.42
2022-12-03T01:44:00.178Z,2.39
2022-12-03T01:46:40.165Z,2.36
2022-12-03T01:49:16.783Z,2.35
2022-12-03T01:51:53.242Z,2.32
2022-12-03T01:54:29.726Z,2.32
2022-12-03T01:57:03.705Z,2.32
2022-12-03T01:59:39.979Z,2.28
2022-12-03T02:02:15.513Z,2.32
2022-12-03T02:04:49.764Z,2.27
2022-12-03T02:07:26.814Z,2.16
2022-12-03T02:10:03.349Z,2.25
2022-12-03T02:12:41.792Z,2.24
2022-12-03T02:15:17.053Z,2.24
2022-12-03T02:17:51.408Z,2.18
2022-12-03T02:20:25.109Z,2.20
2022-12-03T02:23:08.351Z,2.25
2022-12-03T02:25:43.374Z,2.12
2022-12-03T02:28:17.146Z,2.14
2022-12-03T02:30:50.738Z,2.18
2022-12-03T02:33:24.539Z,2.22
2022-12-03T02:36:03.332Z,2.17
2022-12-03T02:38:37.798Z,2.18
2022-12-03T02:41:36.180Z,2.11
2022-12-03T02:44:09.500Z,2.13
2022-12-03T02:46:43.243Z,2.08
2022-12-03T02:49:17.086Z,2.03
2022-12-03T02:51:50.803Z,2.04
2022-12-03T02:54:25.141Z,2.01
2022-12-03T02:57:00.480Z,2.01
2022-12-03T02:59:34.980Z,1.97
2022-12-03T03:02:11.480Z,1.96
2022-12-03T03:04:45.801Z,1.93
2022-12-03T03:07:19.518Z,1.94
2022-12-03T03:09:53.632Z,1.96
2022-12-03T03:12:28.559Z,1.93
2022-12-03T03:15:02.700Z,1.92
2022-12-03T03:17:36.842Z,1.88
2022-12-03T03:20:12.140Z,1.88
2022-12-03T03:22:45.858Z,1.88
2022-12-03T03:25:22.379Z,1.88
2022-12-03T03:27:57.306Z,1.87
2022-12-03T03:30:31.316Z,1.86
2022-12-03T03:33:04.911Z,1.83
2022-12-03T03:35:39.289Z,1.86
2022-12-03T03:38:13.531Z,1.86
2022-12-03T03:40:48.060Z,1.87
2022-12-03T03:43:23.903Z,1.84
2022-12-03T03:45:58.029Z,1.86
2022-12-03T03:48:34.097Z,1.85
2022-12-03T03:51:09.723Z,1.83
2022-12-03T03:53:47.713Z,1.77
2022-12-03T03:56:22.952Z,1.80
2022-12-03T03:58:58.021Z,1.84
2022-12-03T04:01:32.391Z,1.82
2022-12-03T04:04:08.094Z,1.79
2022-12-03T04:06:42.031Z,1.78
2022-12-03T04:09:15.864Z,1.77
2022-12-03T04:12:06.997Z,1.77
2022-12-03T04:14:42.060Z,1.77
2022-12-03T04:17:15.892Z,1.76
2022-12-03T04:19:49.483Z,1.74
2022-12-03T04:22:40.397Z,1.71
2022-12-03T04:25:31.420Z,1.72
2022-12-03T04:28:22.862Z,1.72
2022-12-03T04:30:58.068Z,1.72
2022-12-03T04:33:49.294Z,1.71
2022-12-03T04:36:22.767Z,1.67
2022-12-03T04:38:56.478Z,1.61
2022-12-03T04:41:30.102Z,1.59
2022-12-03T04:44:21.191Z,1.61
2022-12-03T04:46:56.112Z,1.63
2022-12-03T04:49:30.156Z,1.61
2022-12-03T04:52:04.329Z,1.58
2022-12-03T04:54:38.363Z,1.62
2022-12-03T04:57:12.525Z,1.61
2022-12-03T04:59:46.309Z,1.59
2022-12-03T05:02:21.220Z,1.62
2022-12-03T05:04:55.198Z,1.65
2022-12-03T05:07:29.044Z,1.67
2022-12-03T05:10:02.886Z,1.63
2022-12-03T05:12:36.757Z,1.68
2022-12-03T05:15:11.176Z,1.71
2022-12-03T05:17:46.209Z,1.63
2022-12-03T05:20:37.689Z,1.63
2022-12-03T05:23:12.157Z,1.62
2022-12-03T05:25:45.958Z,1.60
2022-12-03T05:28:22.060Z,1.61
2022-12-03T05:30:56.051Z,1.57
2022-12-03T05:33:30.990Z,1.54
2022-12-03T05:36:04.970Z,1.49
2022-12-03T05:38:38.533Z,1.56
2022-12-03T05:41:29.781Z,1.51
2022-12-03T05:44:03.383Z,1.50
2022-12-03T05:46:37.154Z,1.50
2022-12-03T05:49:12.044Z,1.50
2022-12-03T05:51:45.892Z,1.49
2022-12-03T05:54:19.511Z,1.44
2022-12-03T05:56:53.253Z,1.39
2022-12-03T05:59:26.840Z,1.38
2022-12-03T06:02:00.811Z,1.34
2022-12-03T06:04:36.339Z,1.34
2022-12-03T06:07:13.959Z,1.30
2022-12-03T06:09:47.997Z,1.27
2022-12-03T06:12:21.822Z,1.28
2022-12-03T06:14:56.003Z,1.26
2022-12-03T06:17:30.000Z,1.27
2022-12-03T06:20:05.924Z,1.19
2022-12-03T06:22:39.827Z,1.15
2022-12-03T06:25:13.840Z,1.10
2022-12-03T06:27:47.516Z,1.11
2022-12-03T06:30:21.122Z,1.09
2022-12-03T06:32:54.955Z,1.14
2022-12-03T06:35:30.062Z,1.06
2022-12-03T06:38:03.930Z,1.10
2022-12-03T06:40:38.252Z,1.07
2022-12-03T06:43:12.067Z,1.05
2022-12-03T06:45:47.837Z,1.02
2022-12-03T06:48:21.952Z,0.98
2022-12-03T06:50:56.820Z,0.93
2022-12-03T06:53:30.570Z,0.93
2022-12-03T06:56:04.119Z,0.97
2022-12-03T06:58:37.872Z,0.94
2022-12-03T07:01:11.604Z,0.96
2022-12-03T07:03:45.328Z,1.01
2022-12-03T07:06:20.258Z,1.02
2022-12-03T07:08:54.026Z,0.97
2022-12-03T07:11:39.785Z,0.93
2022-12-03T07:14:13.645Z,0.99
2022-12-03T07:16:47.696Z,1.00
2022-12-03T07:19:21.455Z,1.04
2022-12-03T07:21:56.353Z,1.05
2022-12-03T07:24:30.191Z,1.08
2022-12-03T07:27:03.847Z,1.07
2022-12-03T07:29:37.625Z,1.10
2022-12-03T07:32:11.273Z,1.07
2022-12-03T07:34:45.242Z,1.03
2022-12-03T07:37:23.364Z,1.06
2022-12-03T07:39:57.279Z,1.06
2022-12-03T07:42:30.836Z,0.94
2022-12-03T07:45:05.114Z,1.04
2022-12-03T07:47:39.063Z,1.07
2022-12-03T07:50:13.486Z,1.11
2022-12-03T07:52:48.314Z,1.13
2022-12-03T07:55:22.388Z,1.13
2022-12-03T07:57:55.918Z,1.16
2022-12-03T08:00:29.657Z,1.16
2022-12-03T08:03:03.231Z,1.16
2022-12-03T08:05:37.077Z,1.15
2022-12-03T08:08:12.086Z,1.21
2022-12-03T08:10:45.927Z,1.22
2022-12-03T08:13:20.064Z,1.23
2022-12-03T08:15:53.847Z,1.18
2022-12-03T08:18:29.271Z,1.25
2022-12-03T08:21:03.048Z,1.32
2022-12-03T08:23:38.019Z,1.34
2022-12-03T08:26:20.606Z,1.47
2022-12-03T08:28:54.554Z,1.56
2022-12-03T08:31:33.238Z,1.72
2022-12-03T08:34:19.672Z,1.78
2022-12-03T08:36:59.438Z,1.88
2022-12-03T08:39:37.754Z,1.97
2022-12-03T08:42:34.725Z,1.98
2022-12-03T08:45:33.157Z,1.94
2022-12-03T08:48:13.609Z,1.95
2022-12-03T08:50:47.550Z,2.03
2022-12-03T08:53:29.629Z,2.03
2022-12-03T08:56:07.523Z,2.01
2022-12-03T08:58:43.949Z,2.08
2022-12-03T09:01:39.071Z,2.01
2022-12-03T09:04:22.328Z,2.02
2022-12-03T09:06:56.930Z,2.08
2022-12-03T09:09:30.662Z,2.17
2022-12-03T09:12:06.253Z,2.32
2022-12-03T09:14:40.258Z,2.43
2022-12-03T09:17:13.755Z,2.43
2022-12-03T09:19:47.626Z,2.43
2022-12-03T09:22:21.134Z,2.50
2022-12-03T09:24:55.215Z,2.53
2022-12-03T09:27:30.266Z,2.56
2022-12-03T09:30:04.645Z,2.69
2022-12-03T09:32:38.283Z,2.68
2022-12-03T09:35:12.696Z,2.71
2022-12-03T09:37:46.271Z,2.66
2022-12-03T09:40:20.916Z,2.62
2022-12-03T09:42:58.523Z,2.67
2022-12-03T09:45:32.611Z,2.63
2022-12-03T09:48:06.447Z,2.63
2022-12-03T09:50:43.057Z,2.73
2022-12-03T09:53:19.878Z,2.71
2022-12-03T09:55:53.757Z,2.64
2022-12-03T09:58:34.489Z,2.63
2022-12-03T10:01:14.765Z,2.66
2022-12-03T10:03:50.992Z,2.90
2022-12-03T10:06:25.165Z,2.91
2022-12-03T10:09:00.004Z,2.90
2022-12-03T10:11:36.788Z,2.89
2022-12-03T10:14:13.419Z,2.81
2022-12-03T10:16:47.728Z,2.69
2022-12-03T10:19:24.329Z,2.58
2022-12-03T10:21:58.650Z,2.60
2022-12-03T10:24:33.947Z,2.66
2022-12-03T10:27:22.196Z,2.62
2022-12-03T10:29:59.113Z,2.69
2022-12-03T10:32:41.263Z,2.70
2022-12-03T10:35:16.912Z,2.72
2022-12-03T10:38:00.032Z,2.70
2022-12-03T10:40:35.445Z,2.70
2022-12-03T10:43:21.331Z,2.81
2022-12-03T10:46:13.273Z,2.67
2022-12-03T10:49:07.385Z,2.72
2022-12-03T10:51:41.259Z,2.81
2022-12-03T10:54:21.688Z,2.84
2022-12-03T10:56:55.298Z,2.80
2022-12-03T10:59:33.855Z,2.70
2022-12-03T11:02:19.663Z,2.60
2022-12-03T11:04:54.121Z,2.54
2022-12-03T11:07:28.237Z,2.51
2022-12-03T11:10:02.770Z,2.53
2022-12-03T11:12:37.067Z,2.60
2022-12-03T11:15:16.689Z,2.55
2022-12-03T11:17:54.019Z,2.49
2022-12-03T11:21:10.943Z,2.42
2022-12-03T11:24:19.822Z,2.42
2022-12-03T11:27:26.453Z,2.45
2022-12-03T11:30:01.499Z,2.55
2022-12-03T11:33:23.247Z,2.56
2022-12-03T11:36:15.966Z,2.49
2022-12-03T11:38:55.137Z,2.45
2022-12-03T11:41:33.889Z,2.52
2022-12-03T11:44:30.176Z,2.42
2022-12-03T11:47:15.077Z,2.45
2022-12-03T11:49:50.291Z,2.55
2022-12-03T11:52:31.732Z,2.61
2022-12-03T11:55:17.366Z,2.61
2022-12-03T11:57:58.914Z,2.65
2022-12-03T12:00:33.384Z,2.63
2022-12-03T12:03:22.561Z,2.55
2022-12-03T12:06:08.916Z,2.54
2022-12-03T12:08:56.247Z,2.50
2022-12-03T12:11:32.653Z,2.42
2022-12-03T12:14:08.066Z,2.39
2022-12-03T12:16:50.532Z,2.43
2022-12-03T12:19:34.008Z,2.51
2022-12-03T12:22:20.859Z,2.43
2022-12-03T12:24:55.438Z,2.55
2022-12-03T12:27:35.124Z,2.58
2022-12-03T12:30:14.016Z,2.67
2022-12-03T12:32:50.125Z,2.64
2022-12-03T12:35:25.669Z,2.63
2022-12-03T12:38:12.185Z,2.59
2022-12-03T12:40:49.064Z,2.53
2022-12-03T12:43:25.247Z,2.54
2022-12-03T12:46:18.642Z,2.57
2022-12-03T12:48:59.734Z,2.53
2022-12-03T12:51:33.870Z,2.55
2022-12-03T12:54:13.074Z,2.55
2022-12-03T12:56:49.976Z,2.55
2022-12-03T12:59:24.424Z,2.58
2022-12-03T13:01:59.313Z,2.59
2022-12-03T13:04:39.575Z,2.55
2022-12-03T13:07:13.129Z,2.49
2022-12-03T13:09:54.666Z,2.41
2022-12-03T13:12:28.921Z,2.39
2022-12-03T13:15:02.890Z,2.48
2022-12-03T13:17:36.532Z,2.52
2022-12-03T13:20:18.850Z,2.60
2022-12-03T13:22:52.465Z,2.63
2022-12-03T13:28:31.581Z,2.53
2022-12-03T13:31:22.959Z,2.62
2022-12-03T13:33:58.107Z,2.56
2022-12-03T13:36:41.303Z,2.53
2022-12-03T13:39:19.902Z,2.50
2022-12-03T13:42:12.609Z,2.57
2022-12-03T13:44:48.929Z,2.52
2022-12-03T13:47:24.828Z,2.60
2022-12-03T13:50:03.655Z,2.55
2022-12-03T13:52:37.845Z,2.51
2022-12-03T13:55:12.745Z,2.50
2022-12-03T13:57:47.819Z,2.52
2022-12-03T14:00:21.387Z,2.55
2022-12-03T14:02:55.140Z,2.54
2022-12-03T14:05:28.721Z,2.55
2022-12-03T14:08:02.806Z,2.51
2022-12-03T14:10:36.425Z,2.57
2022-12-03T14:13:11.552Z,2.49
2022-12-03T14:15:45.139Z,2.53
2022-12-03T14:18:19.041Z,2.55
2022-12-03T14:20:52.632Z,2.50
2022-12-03T14:23:26.373Z,2.48
2022-12-03T14:25:59.964Z,2.49
2022-12-03T14:28:35.123Z,2.54
2022-12-03T14:31:08.805Z,2.47
2022-12-03T14:33:42.662Z,2.40
2022-12-03T14:36:16.252Z,2.41
2022-12-03T14:38:50.133Z,2.31
2022-12-03T14:41:41.044Z,2.35
2022-12-03T14:44:16.402Z,2.33
2022-12-03T14:46:54.034Z,2.39
2022-12-03T14:49:30.856Z,2.36
2022-12-03T14:52:08.512Z,2.27
2022-12-03T14:54:46.122Z,2.26
2022-12-03T14:57:19.734Z,2.25
2022-12-03T14:59:55.054Z,2.18
2022-12-03T15:02:30.364Z,2.20
2022-12-03T15:05:04.664Z,2.22
2022-12-03T15:07:39.418Z,2.20
2022-12-03T15:10:13.365Z,2.13
2022-12-03T15:12:47.109Z,2.12
2022-12-03T15:15:23.050Z,2.14
2022-12-03T15:17:56.822Z,2.01
2022-12-03T15:20:31.267Z,2.15
2022-12-03T15:23:04.905Z,2.13
2022-12-03T15:25:38.798Z,2.09
2022-12-03T15:28:12.740Z,2.09
2022-12-03T15:30:47.870Z,2.12
2022-12-03T15:33:21.419Z,2.07
2022-12-03T15:35:55.223Z,2.09
2022-12-03T15:38:28.761Z,2.15
2022-12-03T15:41:20.730Z,2.09
2022-12-03T15:43:54.224Z,2.04
2022-12-03T15:46:31.209Z,2.03
2022-12-03T15:49:04.918Z,1.98
2022-12-03T15:51:38.643Z,1.90
2022-12-03T15:54:12.517Z,2.02
2022-12-03T15:56:46.284Z,1.94
2022-12-03T15:59:19.779Z,1.84
2022-12-03T16:01:58.137Z,1.95
2022-12-03T16:04:31.672Z,1.98
2022-12-03T16:07:05.791Z,1.86
2022-12-03T16:09:40.060Z,1.89
2022-12-03T16:12:13.826Z,1.91
2022-12-03T16:14:47.465Z,1.82
2022-12-03T16:17:22.537Z,1.83
2022-12-03T16:19:56.254Z,1.86
2022-12-03T16:22:30.293Z,1.82
2022-12-03T16:25:05.138Z,1.85
2022-12-03T16:27:38.948Z,1.83
2022-12-03T16:30:13.573Z,1.91
2022-12-03T16:32:48.855Z,1.89
2022-12-03T16:35:22.402Z,1.88
2022-12-03T16:37:56.095Z,1.82
2022-12-03T16:40:29.709Z,1.86
2022-12-03T16:43:04.805Z,1.77
2022-12-03T16:45:52.361Z,1.73
2022-12-03T16:48:27.533Z,1.83
2022-12-03T16:51:01.068Z,1.73
2022-12-03T16:53:34.856Z,1.81
2022-12-03T16:56:08.932Z,1.82
2022-12-03T16:58:42.717Z,1.78
2022-12-03T17:01:16.558Z,1.84
2022-12-03T17:03:51.731Z,1.81
2022-12-03T17:06:25.314Z,1.82
2022-12-03T17:08:58.990Z,1.74
2022-12-03T17:11:32.596Z,1.70
2022-12-03T17:14:06.456Z,1.74
2022-12-03T17:16:40.066Z,1.77
2022-12-03T17:19:15.283Z,1.65
2022-12-03T17:21:48.765Z,1.58
2022-12-03T17:24:22.504Z,1.59
2022-12-03T17:26:55.963Z,1.72
2022-12-03T17:29:29.638Z,1.70
2022-12-03T17:32:04.102Z,1.72
2022-12-03T17:34:39.392Z,1.72
2022-12-03T17:37:12.874Z,1.87
2022-12-03T17:39:46.587Z,1.77
2022-12-03T17:42:20.111Z,1.68
2022-12-03T17:44:53.850Z,1.72
2022-12-03T17:47:27.425Z,1.81
2022-12-03T17:50:02.578Z,1.81
2022-12-03T17:52:36.242Z,1.75
2022-12-03T17:55:14.227Z,1.67
2022-12-03T17:57:49.888Z,1.71
2022-12-03T18:00:23.916Z,1.78
2022-12-03T18:02:57.412Z,1.88
2022-12-03T18:05:32.794Z,1.90
2022-12-03T18:08:07.303Z,1.82
2022-12-03T18:10:41.036Z,1.79
2022-12-03T18:13:14.567Z,1.76
2022-12-03T18:15:48.376Z,1.75
2022-12-03T18:18:22.067Z,1.72
2022-12-03T18:21:01.934Z,1.75
2022-12-03T18:23:36.543Z,1.74
2022-12-03T18:26:10.338Z,1.70
2022-12-03T18:28:43.921Z,1.72
2022-12-03T18:31:19.910Z,1.68
2022-12-03T18:33:53.562Z,1.65
2022-12-03T18:36:34.604Z,1.62
2022-12-03T18:39:09.550Z,1.55
2022-12-03T18:41:43.437Z,1.62
2022-12-03T18:44:17.013Z,1.61
2022-12-03T18:46:53.846Z,1.54
2022-12-03T18:49:28.019Z,1.52
2022-12-03T18:52:03.021Z,1.55
2022-12-03T18:54:36.603Z,1.46
2022-12-03T18:57:10.563Z,1.47
2022-12-03T18:59:44.402Z,1.47
2022-12-03T19:05:14.678Z,1.47
2022-12-03T19:07:51.235Z,1.50
2022-12-03T19:10:25.358Z,1.47
2022-12-03T19:12:59.156Z,1.45
2022-12-03T19:15:32.701Z,1.45
2022-12-03T19:18:07.495Z,1.41
2022-12-03T19:20:41.784Z,1.39
2022-12-03T19:23:16.886Z,1.38
2022-12-03T19:25:57.600Z,1.29
2022-12-03T19:28:32.134Z,1.27
2022-12-03T19:31:07.809Z,1.26
2022-12-03T19:33:42.420Z,1.27
2022-12-03T19:36:24.045Z,1.25
2022-12-03T19:39:01.483Z,1.29
2022-12-03T19:41:35.223Z,1.28
2022-12-03T19:44:11.039Z,1.25
2022-12-03T19:46:45.280Z,1.16
2022-12-03T19:49:21.020Z,1.08
2022-12-03T19:51:54.701Z,1.04
2022-12-03T19:54:29.873Z,1.02
2022-12-03T19:57:03.372Z,1.06
2022-12-03T19:59:37.195Z,1.03
2022-12-03T20:02:11.384Z,1.00
2022-12-03T20:04:45.248Z,0.99
2022-12-03T20:07:18.728Z,1.00
2022-12-03T20:09:54.233Z,0.98
2022-12-03T20:12:27.822Z,1.00
2022-12-03T20:15:01.566Z,1.03
2022-12-03T20:17:35.243Z,0.95
2022-12-03T20:20:10.185Z,0.89
2022-12-03T20:22:43.803Z,0.83
2022-12-03T20:25:19.124Z,0.84
2022-12-03T20:27:52.929Z,0.84
2022-12-03T20:30:26.775Z,0.80
2022-12-03T20:33:00.692Z,0.71
2022-12-03T20:35:34.787Z,0.74
2022-12-03T20:38:08.477Z,0.74
2022-12-03T20:40:43.678Z,0.75
2022-12-03T20:43:17.613Z,0.76
2022-12-03T20:45:51.303Z,0.78
2022-12-03T20:48:24.866Z,0.76
2022-12-03T20:50:58.555Z,0.73
2022-12-03T20:53:32.177Z,0.65
2022-12-03T20:56:08.916Z,0.64
2022-12-03T20:58:42.545Z,0.73
2022-12-03T21:01:19.461Z,0.69
2022-12-03T21:03:54.689Z,0.75
2022-12-03T21:06:29.809Z,0.69
2022-12-03T21:09:05.489Z,0.73
2022-12-03T21:11:42.616Z,0.73
2022-12-03T21:14:16.361Z,0.63
2022-12-03T21:17:07.713Z,0.57
2022-12-03T21:19:42.165Z,0.57
2022-12-03T21:22:16.040Z,0.59
2022-12-03T21:24:49.527Z,0.49
2022-12-03T21:27:24.706Z,0.53
2022-12-03T21:29:58.312Z,0.60
2022-12-03T21:32:32.017Z,0.53
2022-12-03T21:35:06.158Z,0.54
2022-12-03T21:37:39.958Z,0.56
2022-12-03T21:40:13.885Z,0.60
2022-12-03T21:42:49.124Z,0.48
2022-12-03T21:45:24.943Z,0.51
2022-12-03T21:47:58.845Z,0.58
2022-12-03T21:50:32.432Z,0.50
2022-12-03T21:53:06.173Z,0.52
2022-12-03T21:55:40.399Z,0.52
2022-12-03T21:58:15.631Z,0.49
2022-12-03T22:00:49.241Z,0.56
2022-12-03T22:03:23.082Z,0.66
2022-12-03T22:05:56.715Z,0.61
2022-12-03T22:08:30.419Z,0.58
2022-12-03T22:11:08.976Z,0.53
2022-12-03T22:13:44.437Z,0.54
2022-12-03T22:16:21.504Z,0.45
2022-12-03T22:18:55.343Z,0.41
2022-12-03T22:21:29.247Z,0.41
2022-12-03T22:24:03.140Z,0.32
2022-12-03T22:26:36.931Z,0.26
2022-12-03T22:29:13.179Z,0.23
2022-12-03T22:31:46.956Z,0.14
2022-12-03T22:34:20.946Z,0.24
2022-12-03T22:36:54.604Z,0.26
2022-12-03T22:39:28.514Z,0.25
2022-12-03T22:42:02.128Z,0.27
2022-12-03T22:44:37.456Z,0.26
2022-12-03T22:47:11.083Z,0.29
2022-12-03T22:49:45.017Z,0.24
2022-12-03T22:52:18.694Z,0.28
2022-12-03T22:54:52.462Z,0.23
2022-12-03T22:57:26.016Z,0.27
2022-12-03T23:00:01.142Z,0.28
2022-12-03T23:02:35.024Z,0.23
2022-12-03T23:05:09.055Z,0.19
2022-12-03T23:07:42.844Z,0.17
2022-12-03T23:10:17.006Z,0.20
2022-12-03T23:12:50.689Z,0.22
2022-12-03T23:15:25.908Z,0.23
2022-12-03T23:18:00.155Z,0.17
2022-12-03T23:20:34.186Z,0.21
2022-12-03T23:23:07.842Z,0.23
2022-12-03T23:25:41.714Z,0.28
2022-12-03T23:28:15.261Z,0.27
2022-12-03T23:30:50.346Z,0.30
2022-12-03T23:33:24.465Z,0.24
2022-12-03T23:35:58.274Z,0.30
2022-12-03T23:38:31.798Z,0.30
2022-12-03T23:41:06.015Z,0.31
2022-12-03T23:43:40.316Z,0.30
2022-12-03T23:46:17.725Z,0.28
2022-12-03T23:48:52.003Z,0.33
2022-12-03T23:51:27.266Z,0.36
2022-12-03T23:54:00.935Z,0.40
2022-12-03T23:56:34.768Z,0.43
2022-12-03T23:59:08.220Z,0.40
